Lily Atlantic — HOWL — position and weather

sailwx.info

Track history (hours):
 
Tides and Currents Weather Stations Pressure Air Temp Water Temp Dewpoint Dewpoint Depression Visibility Wind Speed Wind Dir Waves Ship Positions

Lily Atlantic

Last reported at 2017-Oct-23 07:43 UTC. Time now 2017-Nov-18 03:05 UTC.
Position N 01°19' E 103°20'.
Warning: this ship's position is 25 days out of date.

Length 229 m; draft 14.7 m.

Type: Cargo ship. MMSI: 354774000.

Date/timePositionNaut miles runAvg speedWind from/ knotsBaromVisibWave heightAir tempDewpointWater temp
2017-Oct-23 07:43N 01°19' E 103°20'410.6
2017-Oct-23 07:19N 01°16' E 103°23'410.1
2017-Oct-23 06:58N 01°14' E 103°26'5 9.6
2017-Oct-23 06:30N 01°13' E 103°30'5 9.5
2017-Oct-23 06:00N 01°12' E 103°35'3 6.3
2017-Oct-23 05:30N 01°11' E 103°38'4 8.6
2017-Oct-23 05:01N 01°10' E 103°42'4 7.1
2017-Oct-23 04:30N 01°09' E 103°45'4 8.9
2017-Oct-23 04:00N 01°11' E 103°49'510.7
2017-Oct-23 03:30N 01°13' E 103°54'510.3
2017-Oct-23 03:01N 01°15' E 103°59'2 2.9
2017-Oct-23 02:29N 01°17' E 103°58'0 0.1
2017-Oct-22 23:37N 01°17' E 103°58'0 0.1
2017-Oct-22 23:10N 01°17' E 103°58'0 0.1
2017-Oct-22 21:07N 01°17' E 103°58'0 0.0
2017-Oct-22 19:07N 01°17' E 103°58'0 0.1
2017-Oct-22 18:55N 01°17' E 103°58'0 0.1
2017-Oct-22 18:19N 01°17' E 103°58'0 0.1
2017-Oct-22 15:04N 01°17' E 103°58'0 0.1
2017-Oct-22 13:43N 01°17' E 103°58'0 0.2
2017-Oct-22 13:14N 01°17' E 103°58'1 2.5
2017-Oct-22 13:00N 01°16' E 103°59'2 3.8
2017-Oct-22 12:30N 01°16' E 104°01'  
Track history (hours):
 
Tides and Currents Weather Stations Pressure Air Temp Water Temp Dewpoint Dewpoint Depression Visibility Wind Speed Wind Dir Waves Ship Positions

Lily Atlantic

Last reported at 2017-Oct-23 07:43 UTC. Time now 2017-Nov-18 03:05 UTC.
Position N 01°19' E 103°20'.
Warning: this ship's position is 25 days out of date.

Length 229 m; draft 14.7 m.

Type: Cargo ship. MMSI: 354774000.

Date/timePositionNaut miles runAvg speedWind from/ knotsBaromVisibWave heightAir tempDewpointWater temp
2017-Oct-23 07:43N 01°19' E 103°20'410.6
2017-Oct-23 07:19N 01°16' E 103°23'410.1
2017-Oct-23 06:58N 01°14' E 103°26'5 9.6
2017-Oct-23 06:30N 01°13' E 103°30'5 9.5
2017-Oct-23 06:00N 01°12' E 103°35'3 6.3
2017-Oct-23 05:30N 01°11' E 103°38'4 8.6
2017-Oct-23 05:01N 01°10' E 103°42'4 7.1
2017-Oct-23 04:30N 01°09' E 103°45'4 8.9
2017-Oct-23 04:00N 01°11' E 103°49'510.7
2017-Oct-23 03:30N 01°13' E 103°54'510.3
2017-Oct-23 03:01N 01°15' E 103°59'2 2.9
2017-Oct-23 02:29N 01°17' E 103°58'0 0.1
2017-Oct-22 23:37N 01°17' E 103°58'0 0.1
2017-Oct-22 23:10N 01°17' E 103°58'0 0.1
2017-Oct-22 21:07N 01°17' E 103°58'0 0.0
2017-Oct-22 19:07N 01°17' E 103°58'0 0.1
2017-Oct-22 18:55N 01°17' E 103°58'0 0.1
2017-Oct-22 18:19N 01°17' E 103°58'0 0.1
2017-Oct-22 15:04N 01°17' E 103°58'0 0.1
2017-Oct-22 13:43N 01°17' E 103°58'0 0.2
2017-Oct-22 13:14N 01°17' E 103°58'1 2.5
2017-Oct-22 13:00N 01°16' E 103°59'2 3.8
2017-Oct-22 12:30N 01°16' E 104°01'  

Dump ship's entire track history